Hlavní strana
METAR-TAF:

METAR-TAF

Letiště :

Voroněž, Rusko

zeměpisná šířka: 51-39N, zeměpisná délka: 039-15E, výška: 154 m

Aktuální stav počasí

Zpráva byla vytvořena před 21 minutami, v 01:30 UTC
Západní vítr 10 kt
Teplota 7°C
Vlhkost vzduchu 93%
Tlak 1006 hPa
Viditelnost 10 km a více
Oblačno až skoro zataženo ve výšce 1100 ft, Cumulonimbus.

METAR: UUOO 090130Z 26005MPS 9999 BKN011CB 07/06 Q1006 R30/290250 NOSIG RMK QFE741

Čas: 04:51 (01:51 UTC)

Předpověď počasí

Zpráva byla vytvořena před 2 hodinami a 51 minutami, v 23:00 UTC
Předpověď platná od 09 v 00 UTC do 09 v 09 UTC
Západojihozápadní vítr 6 kt
Viditelnost: 5000 m
Polojasno ve výšce 500 ft
Oblačno až skoro zataženo ve výšce 1100 ft, Cumulonimbus.
slabé dešťové přeháňky
Změna
od 09 v 06 UTC do 09 v 08 UTC
Severozápadní vítr 12 kt s nárazy do 21 kt

TAF: UUOO 082300Z 0900/0909 24003MPS 5000 -SHRA SCT005 BKN011CB BECMG 0906/0908 32006G11MPS

Stav a předpovědi počasí z více než 4 000 letišť (zprávy METAR a TAF).

Červené a žluté tečky na mapě představují dostupné meteorologické stanice.

Když kurzor umístíte na tečku, zobrazí se název stanice.

Pak kliknutím zobrazíte stav a předpověď počasí.

Chcete-li změnit mapu, kliknutím na zelené tlačítko se znaménkem +mapu přiblížíte, kliknutím na zelené tlačítko se znaménkem – mapu oddálíte a kliknutím na zelené šipky přejdete na sousední mapy.


METAR-TAF: